sensor_id;sensor_type;location;lat;lon;timestamp;P1;durP1;ratioP1;P2;durP2;ratioP2
4758;SDS011;2393;50.560;12.636;2022-10-30T01:02:23;7.10;;;1.67;;
4758;SDS011;2393;50.560;12.636;2022-10-30T01:10:25;9.40;;;2.33;;
4758;SDS011;2393;50.560;12.636;2022-10-30T01:14:33;10.10;;;2.10;;
4758;SDS011;2393;50.560;12.636;2022-10-30T02:19:15;2.80;;;1.37;;
4758;SDS011;2393;50.560;12.636;2022-10-30T02:22:02;5.23;;;1.40;;
4758;SDS011;2393;50.560;12.636;2022-10-30T02:24:38;11.40;;;1.80;;
4758;SDS011;2393;50.560;12.636;2022-10-30T03:22:39;2.07;;;1.03;;
4758;SDS011;2393;50.560;12.636;2022-10-30T03:39:31;8.97;;;1.63;;
4758;SDS011;2393;50.560;12.636;2022-10-30T04:42:57;4.90;;;1.70;;
4758;SDS011;2393;50.560;12.636;2022-10-30T07:31:37;7.70;;;1.70;;
4758;SDS011;2393;50.560;12.636;2022-10-30T07:44:05;7.63;;;2.80;;
4758;SDS011;2393;50.560;12.636;2022-10-30T07:47:42;9.80;;;2.93;;
4758;SDS011;2393;50.560;12.636;2022-10-30T07:54:42;4.47;;;1.30;;
4758;SDS011;2393;50.560;12.636;2022-10-30T07:58:01;9.10;;;1.40;;
4758;SDS011;2393;50.560;12.636;2022-10-30T08:40:56;14.43;;;6.10;;
4758;SDS011;2393;50.560;12.636;2022-10-30T09:53:36;12.03;;;2.00;;
4758;SDS011;2393;50.560;12.636;2022-10-30T09:57:29;12.57;;;1.80;;
4758;SDS011;2393;50.560;12.636;2022-10-30T11:25:22;10.73;;;1.67;;
4758;SDS011;2393;50.560;12.636;2022-10-30T11:32:17;7.90;;;2.67;;
4758;SDS011;2393;50.560;12.636;2022-10-30T11:35:11;12.03;;;2.93;;
4758;SDS011;2393;50.560;12.636;2022-10-30T11:38:10;5.50;;;2.10;;
4758;SDS011;2393;50.560;12.636;2022-10-30T11:45:51;7.60;;;1.70;;
4758;SDS011;2393;50.560;12.636;2022-10-30T11:51:43;16.97;;;2.40;;
4758;SDS011;2393;50.560;12.636;2022-10-30T12:01:05;3.50;;;1.47;;
4758;SDS011;2393;50.560;12.636;2022-10-30T12:22:26;8.27;;;1.80;;
4758;SDS011;2393;50.560;12.636;2022-10-30T12:31:13;5.40;;;1.30;;
4758;SDS011;2393;50.560;12.636;2022-10-30T12:34:55;7.30;;;1.90;;
4758;SDS011;2393;50.560;12.636;2022-10-30T13:01:40;3.77;;;1.77;;
4758;SDS011;2393;50.560;12.636;2022-10-30T13:04:40;6.87;;;1.33;;
4758;SDS011;2393;50.560;12.636;2022-10-30T13:07:12;11.93;;;1.80;;
4758;SDS011;2393;50.560;12.636;2022-10-30T13:10:21;12.20;;;2.20;;
4758;SDS011;2393;50.560;12.636;2022-10-30T13:13:04;4.67;;;1.33;;
4758;SDS011;2393;50.560;12.636;2022-10-30T13:15:43;6.83;;;1.57;;
4758;SDS011;2393;50.560;12.636;2022-10-30T13:18:53;4.80;;;1.17;;
4758;SDS011;2393;50.560;12.636;2022-10-30T13:21:13;6.73;;;1.40;;
4758;SDS011;2393;50.560;12.636;2022-10-30T13:23:51;8.43;;;1.50;;
4758;SDS011;2393;50.560;12.636;2022-10-30T13:29:26;10.07;;;2.17;;
4758;SDS011;2393;50.560;12.636;2022-10-30T13:32:22;7.33;;;1.70;;
4758;SDS011;2393;50.560;12.636;2022-10-30T13:35:07;6.23;;;1.23;;
4758;SDS011;2393;50.560;12.636;2022-10-30T13:37:58;12.00;;;1.27;;
4758;SDS011;2393;50.560;12.636;2022-10-30T13:40:31;6.90;;;1.20;;
4758;SDS011;2393;50.560;12.636;2022-10-30T13:43:20;4.00;;;1.63;;
4758;SDS011;2393;50.560;12.636;2022-10-30T13:46:18;3.13;;;1.70;;
4758;SDS011;2393;50.560;12.636;2022-10-30T13:50:04;9.40;;;1.80;;
4758;SDS011;2393;50.560;12.636;2022-10-30T13:53:03;12.97;;;1.77;;
4758;SDS011;2393;50.560;12.636;2022-10-30T13:55:38;3.83;;;1.43;;
4758;SDS011;2393;50.560;12.636;2022-10-30T13:58:52;7.63;;;1.43;;
4758;SDS011;2393;50.560;12.636;2022-10-30T14:02:08;9.50;;;2.40;;
4758;SDS011;2393;50.560;12.636;2022-10-30T14:06:34;3.27;;;1.50;;
4758;SDS011;2393;50.560;12.636;2022-10-30T14:09:09;13.23;;;2.20;;
4758;SDS011;2393;50.560;12.636;2022-10-30T14:11:53;2.73;;;2.10;;
4758;SDS011;2393;50.560;12.636;2022-10-30T14:14:30;5.63;;;1.33;;
4758;SDS011;2393;50.560;12.636;2022-10-30T14:17:12;7.80;;;2.30;;
4758;SDS011;2393;50.560;12.636;2022-10-30T14:24:04;9.97;;;1.97;;
4758;SDS011;2393;50.560;12.636;2022-10-30T14:27:13;9.40;;;2.03;;
4758;SDS011;2393;50.560;12.636;2022-10-30T14:29:54;6.13;;;1.23;;
4758;SDS011;2393;50.560;12.636;2022-10-30T14:42:11;3.77;;;1.30;;
4758;SDS011;2393;50.560;12.636;2022-10-30T14:45:12;15.13;;;1.50;;
4758;SDS011;2393;50.560;12.636;2022-10-30T14:48:25;7.50;;;1.80;;
4758;SDS011;2393;50.560;12.636;2022-10-30T14:51:12;6.23;;;1.77;;
4758;SDS011;2393;50.560;12.636;2022-10-30T14:54:16;7.43;;;2.80;;
4758;SDS011;2393;50.560;12.636;2022-10-30T14:56:49;4.37;;;1.93;;
4758;SDS011;2393;50.560;12.636;2022-10-30T14:59:21;8.30;;;1.70;;
4758;SDS011;2393;50.560;12.636;2022-10-30T15:02:16;4.40;;;1.63;;
4758;SDS011;2393;50.560;12.636;2022-10-30T15:05:02;9.43;;;2.27;;
4758;SDS011;2393;50.560;12.636;2022-10-30T15:07:50;7.70;;;1.83;;
4758;SDS011;2393;50.560;12.636;2022-10-30T15:10:35;7.10;;;2.27;;
4758;SDS011;2393;50.560;12.636;2022-10-30T15:13:18;6.57;;;2.33;;
4758;SDS011;2393;50.560;12.636;2022-10-30T15:15:55;5.20;;;1.57;;
4758;SDS011;2393;50.560;12.636;2022-10-30T15:18:28;8.07;;;2.07;;
4758;SDS011;2393;50.560;12.636;2022-10-30T15:21:03;4.60;;;1.80;;
4758;SDS011;2393;50.560;12.636;2022-10-30T15:23:35;5.43;;;1.70;;
4758;SDS011;2393;50.560;12.636;2022-10-30T15:26:04;4.40;;;1.73;;
4758;SDS011;2393;50.560;12.636;2022-10-30T15:28:41;3.17;;;1.70;;
4758;SDS011;2393;50.560;12.636;2022-10-30T15:31:19;5.37;;;1.67;;
4758;SDS011;2393;50.560;12.636;2022-10-30T15:34:02;3.90;;;1.50;;
4758;SDS011;2393;50.560;12.636;2022-10-30T15:36:54;6.40;;;1.80;;
4758;SDS011;2393;50.560;12.636;2022-10-30T15:39:23;8.37;;;1.43;;
4758;SDS011;2393;50.560;12.636;2022-10-30T15:41:52;2.43;;;1.63;;
4758;SDS011;2393;50.560;12.636;2022-10-30T15:44:23;7.33;;;1.90;;
4758;SDS011;2393;50.560;12.636;2022-10-30T15:46:55;5.23;;;1.80;;
4758;SDS011;2393;50.560;12.636;2022-10-30T15:49:31;10.33;;;2.30;;
4758;SDS011;2393;50.560;12.636;2022-10-30T15:52:10;3.03;;;1.50;;
4758;SDS011;2393;50.560;12.636;2022-10-30T15:54:59;6.77;;;2.10;;
4758;SDS011;2393;50.560;12.636;2022-10-30T15:57:40;6.30;;;2.10;;
4758;SDS011;2393;50.560;12.636;2022-10-30T16:00:31;2.47;;;1.20;;
4758;SDS011;2393;50.560;12.636;2022-10-30T16:03:03;6.17;;;2.00;;
4758;SDS011;2393;50.560;12.636;2022-10-30T16:05:34;4.00;;;1.57;;
4758;SDS011;2393;50.560;12.636;2022-10-30T16:08:03;10.90;;;2.23;;
4758;SDS011;2393;50.560;12.636;2022-10-30T16:10:41;13.60;;;2.90;;
4758;SDS011;2393;50.560;12.636;2022-10-30T16:13:13;9.67;;;2.00;;
4758;SDS011;2393;50.560;12.636;2022-10-30T16:15:46;10.37;;;2.40;;
4758;SDS011;2393;50.560;12.636;2022-10-30T16:18:16;8.67;;;1.83;;
4758;SDS011;2393;50.560;12.636;2022-10-30T16:20:49;3.87;;;1.70;;
4758;SDS011;2393;50.560;12.636;2022-10-30T16:23:20;4.60;;;1.60;;
4758;SDS011;2393;50.560;12.636;2022-10-30T16:25:53;4.93;;;1.70;;
4758;SDS011;2393;50.560;12.636;2022-10-30T16:28:22;5.37;;;1.90;;
4758;SDS011;2393;50.560;12.636;2022-10-30T16:30:52;5.43;;;2.03;;
4758;SDS011;2393;50.560;12.636;2022-10-30T16:33:23;7.53;;;2.50;;
4758;SDS011;2393;50.560;12.636;2022-10-30T16:35:55;8.00;;;1.57;;
4758;SDS011;2393;50.560;12.636;2022-10-30T16:38:25;10.90;;;3.27;;
4758;SDS011;2393;50.560;12.636;2022-10-30T16:41:06;8.60;;;3.40;;
4758;SDS011;2393;50.560;12.636;2022-10-30T16:44:06;7.33;;;3.20;;
4758;SDS011;2393;50.560;12.636;2022-10-30T16:46:40;9.10;;;5.23;;
4758;SDS011;2393;50.560;12.636;2022-10-30T16:49:15;10.83;;;3.67;;
4758;SDS011;2393;50.560;12.636;2022-10-30T16:51:46;43.90;;;10.73;;
4758;SDS011;2393;50.560;12.636;2022-10-30T16:54:25;50.73;;;13.60;;
4758;SDS011;2393;50.560;12.636;2022-10-30T16:57:02;15.43;;;5.40;;
4758;SDS011;2393;50.560;12.636;2022-10-30T16:59:32;34.77;;;11.00;;
4758;SDS011;2393;50.560;12.636;2022-10-30T17:02:14;28.50;;;6.60;;
4758;SDS011;2393;50.560;12.636;2022-10-30T17:04:46;34.83;;;12.73;;
4758;SDS011;2393;50.560;12.636;2022-10-30T17:07:30;36.17;;;12.83;;
4758;SDS011;2393;50.560;12.636;2022-10-30T17:10:30;71.80;;;21.70;;
4758;SDS011;2393;50.560;12.636;2022-10-30T17:16:20;56.83;;;20.37;;
4758;SDS011;2393;50.560;12.636;2022-10-30T17:18:51;42.93;;;14.57;;
4758;SDS011;2393;50.560;12.636;2022-10-30T17:21:24;44.47;;;16.13;;
4758;SDS011;2393;50.560;12.636;2022-10-30T17:24:00;35.03;;;13.00;;
4758;SDS011;2393;50.560;12.636;2022-10-30T17:26:28;16.00;;;6.83;;
4758;SDS011;2393;50.560;12.636;2022-10-30T17:32:19;14.83;;;5.70;;
4758;SDS011;2393;50.560;12.636;2022-10-30T17:35:08;7.67;;;4.17;;
4758;SDS011;2393;50.560;12.636;2022-10-30T17:51:13;9.77;;;1.30;;
4758;SDS011;2393;50.560;12.636;2022-10-30T17:55:35;10.40;;;3.83;;
4758;SDS011;2393;50.560;12.636;2022-10-30T17:59:04;12.33;;;4.87;;
4758;SDS011;2393;50.560;12.636;2022-10-30T18:03:11;17.90;;;8.77;;
4758;SDS011;2393;50.560;12.636;2022-10-30T18:06:54;34.40;;;13.40;;
4758;SDS011;2393;50.560;12.636;2022-10-30T18:11:01;52.30;;;14.40;;
4758;SDS011;2393;50.560;12.636;2022-10-30T18:14:17;44.70;;;16.50;;
4758;SDS011;2393;50.560;12.636;2022-10-30T18:17:20;41.20;;;14.63;;
4758;SDS011;2393;50.560;12.636;2022-10-30T18:20:52;36.87;;;12.43;;
4758;SDS011;2393;50.560;12.636;2022-10-30T18:24:22;31.20;;;9.63;;
4758;SDS011;2393;50.560;12.636;2022-10-30T18:29:14;20.80;;;5.63;;
4758;SDS011;2393;50.560;12.636;2022-10-30T18:31:42;56.10;;;19.20;;
4758;SDS011;2393;50.560;12.636;2022-10-30T18:34:13;23.93;;;7.67;;
4758;SDS011;2393;50.560;12.636;2022-10-30T18:36:46;37.40;;;11.13;;
4758;SDS011;2393;50.560;12.636;2022-10-30T18:43:35;34.97;;;11.37;;
4758;SDS011;2393;50.560;12.636;2022-10-30T18:46:16;36.00;;;13.70;;
4758;SDS011;2393;50.560;12.636;2022-10-30T18:49:00;17.20;;;7.60;;
4758;SDS011;2393;50.560;12.636;2022-10-30T18:51:30;17.23;;;7.80;;
4758;SDS011;2393;50.560;12.636;2022-10-30T18:54:10;28.60;;;6.67;;
4758;SDS011;2393;50.560;12.636;2022-10-30T18:56:54;17.33;;;7.03;;
4758;SDS011;2393;50.560;12.636;2022-10-30T18:59:52;6.47;;;4.80;;
4758;SDS011;2393;50.560;12.636;2022-10-30T19:04:00;9.40;;;4.00;;
4758;SDS011;2393;50.560;12.636;2022-10-30T19:08:17;8.87;;;4.10;;
4758;SDS011;2393;50.560;12.636;2022-10-30T19:11:30;12.30;;;4.57;;
4758;SDS011;2393;50.560;12.636;2022-10-30T19:32:07;18.77;;;8.43;;
4758;SDS011;2393;50.560;12.636;2022-10-30T19:34:56;16.73;;;6.97;;
4758;SDS011;2393;50.560;12.636;2022-10-30T19:37:37;12.73;;;6.40;;
4758;SDS011;2393;50.560;12.636;2022-10-30T19:44:42;7.10;;;3.60;;
4758;SDS011;2393;50.560;12.636;2022-10-30T20:24:43;20.83;;;6.43;;
4758;SDS011;2393;50.560;12.636;2022-10-30T20:27:25;16.77;;;6.40;;
4758;SDS011;2393;50.560;12.636;2022-10-30T20:31:47;15.13;;;5.60;;
4758;SDS011;2393;50.560;12.636;2022-10-30T20:34:25;5.23;;;2.20;;
4758;SDS011;2393;50.560;12.636;2022-10-30T20:41:38;7.27;;;1.60;;
4758;SDS011;2393;50.560;12.636;2022-10-30T20:58:02;3.73;;;1.83;;
4758;SDS011;2393;50.560;12.636;2022-10-30T21:01:41;11.20;;;2.30;;
4758;SDS011;2393;50.560;12.636;2022-10-30T21:04:23;3.30;;;1.73;;
4758;SDS011;2393;50.560;12.636;2022-10-30T21:06:51;7.90;;;2.40;;
4758;SDS011;2393;50.560;12.636;2022-10-30T21:13:20;1.63;;;1.50;;
4758;SDS011;2393;50.560;12.636;2022-10-30T21:16:00;4.77;;;1.60;;
4758;SDS011;2393;50.560;12.636;2022-10-30T21:18:32;3.10;;;1.77;;
4758;SDS011;2393;50.560;12.636;2022-10-30T21:21:11;4.20;;;2.10;;
4758;SDS011;2393;50.560;12.636;2022-10-30T21:23:53;4.37;;;1.60;;
4758;SDS011;2393;50.560;12.636;2022-10-30T21:26:22;4.50;;;1.60;;
4758;SDS011;2393;50.560;12.636;2022-10-30T21:28:51;3.27;;;1.43;;
4758;SDS011;2393;50.560;12.636;2022-10-30T21:36:06;6.70;;;1.93;;
4758;SDS011;2393;50.560;12.636;2022-10-30T21:39:14;2.13;;;1.33;;
4758;SDS011;2393;50.560;12.636;2022-10-30T21:41:59;2.10;;;1.60;;
4758;SDS011;2393;50.560;12.636;2022-10-30T21:44:37;4.70;;;2.30;;
4758;SDS011;2393;50.560;12.636;2022-10-30T21:47:19;2.40;;;1.50;;
4758;SDS011;2393;50.560;12.636;2022-10-30T21:49:54;8.70;;;1.67;;
4758;SDS011;2393;50.560;12.636;2022-10-30T21:52:30;3.37;;;1.60;;
4758;SDS011;2393;50.560;12.636;2022-10-30T21:55:05;4.20;;;1.73;;
4758;SDS011;2393;50.560;12.636;2022-10-30T21:57:36;2.67;;;1.57;;
4758;SDS011;2393;50.560;12.636;2022-10-30T22:00:06;9.13;;;1.90;;
4758;SDS011;2393;50.560;12.636;2022-10-30T22:02:47;4.03;;;1.30;;
4758;SDS011;2393;50.560;12.636;2022-10-30T22:05:21;1.97;;;1.50;;
4758;SDS011;2393;50.560;12.636;2022-10-30T22:07:50;4.20;;;1.50;;
4758;SDS011;2393;50.560;12.636;2022-10-30T22:10:18;5.70;;;1.87;;
4758;SDS011;2393;50.560;12.636;2022-10-30T22:17:22;5.63;;;2.20;;
4758;SDS011;2393;50.560;12.636;2022-10-30T22:20:56;1.70;;;1.10;;
4758;SDS011;2393;50.560;12.636;2022-10-30T22:37:04;2.77;;;1.30;;
4758;SDS011;2393;50.560;12.636;2022-10-30T22:40:09;10.00;;;1.70;;
4758;SDS011;2393;50.560;12.636;2022-10-30T22:44:06;1.93;;;1.60;;
4758;SDS011;2393;50.560;12.636;2022-10-30T23:00:39;3.53;;;1.70;;
4758;SDS011;2393;50.560;12.636;2022-10-30T23:09:15;2.60;;;1.57;;
4758;SDS011;2393;50.560;12.636;2022-10-30T23:13:25;1.97;;;1.80;;
4758;SDS011;2393;50.560;12.636;2022-10-30T23:24:16;3.17;;;1.50;;
4758;SDS011;2393;50.560;12.636;2022-10-30T23:54:56;2.47;;;1.83;;
4758;SDS011;2393;50.560;12.636;2022-10-30T23:59:01;9.83;;;1.80;;
